JFK weather

John F Kennedy International Airport
New York, New York, United States

Public forecast

Using degrees Fahrenheit for public forecast. Weather courtesy of forecast.io.

METAR (pilot weather report)

Retrieved 2018/10/20 05:51 UTC (29 minutes ago):

KJFK 200551Z 22010KT 10SM FEW055 BKN110 OVC140 14/09 A2987 RMK AO2 RAB30E39 SLP114 P0000 60000 T01390094 10139 20133 58037

TAF (pilot weather forecast)

Retrieved 2018/10/20 06:45 UTC (0 seconds ago):

TAF KJFK 200536Z 2006/2112 22015KT P6SM -SHRA BKN100 BKN180 FM200800 23015KT 6SM -SHRA OVC035 FM201000 23015G20KT 6SM -SHRA OVC025 FM201300 24016G24KT P6SM BKN040 FM201900 26015G22KT P6SM BKN060 FM202200 27013G21KT P6SM BKN150 FM210300 31013KT P6SM VCSH BKN060